Time;durP1;ratioP1;P1;durP2;ratioP2;P2;SDS_P1;SDS_P2;PMS_P1;PMS_P2;Temp;Humidity;BMP_temperature;BMP_pressure;BME280_temperature;BME280_humidity;BME280_pressure;Samples;Min_cycle;Max_cycle;Signal;HPM_P1;HPM_P2
2022/03/05 00:00:17;;;;;;;49.70;23.30;;;;;;;1.41;70.20;100757.55;129720;1274;108889;-75
2022/03/05 00:03:41;;;;;;;63.00;23.60;;;;;;;1.35;70.47;100760.85;129585;1274;109115;-75
2022/03/05 00:06:48;;;;;;;44.20;20.30;;;;;;;1.24;70.32;100765.63;129611;1274;108783;-75
2022/03/05 00:09:53;;;;;;;45.00;19.70;;;;;;;1.06;70.65;100769.40;129787;1274;108904;-75
2022/03/05 00:12:59;;;;;;;38.00;17.60;;;;;;;0.92;70.81;100766.77;129768;1274;108923;-75
2022/03/05 00:16:05;;;;;;;33.80;16.60;;;;;;;0.79;70.96;100766.23;129520;1274;108703;-75
2022/03/05 00:19:10;;;;;;;32.40;17.00;;;;;;;0.69;71.01;100772.13;129603;1274;108824;-75
2022/03/05 00:22:16;;;;;;;30.00;15.80;;;;;;;0.64;71.02;100775.58;129648;1274;108306;-75
2022/03/05 00:25:23;;;;;;;34.20;15.80;;;;;;;0.65;71.18;100775.33;129709;1274;109058;-75
2022/03/05 00:28:29;;;;;;;29.30;14.20;;;;;;;0.74;71.01;100776.25;129652;1274;106839;-72
2022/03/05 00:31:35;;;;;;;28.00;13.30;;;;;;;0.77;70.96;100778.21;129663;1274;108962;-74
2022/03/05 00:34:40;;;;;;;36.60;16.40;;;;;;;0.78;71.20;100778.19;129500;1274;109000;-74
2022/03/05 00:37:46;;;;;;;31.80;15.70;;;;;;;0.81;71.10;100785.92;129638;1274;108807;-76
2022/03/05 00:40:51;;;;;;;32.00;15.70;;;;;;;0.81;71.12;100782.92;129561;1274;107283;-75
2022/03/05 00:43:57;;;;;;;30.20;15.40;;;;;;;0.83;71.20;100783.88;129649;1272;107514;-75
2022/03/05 00:47:02;;;;;;;31.30;15.60;;;;;;;0.81;71.14;100786.42;129706;1274;109091;-74
2022/03/05 00:50:10;;;;;;;29.00;15.80;;;;;;;0.77;71.06;100780.66;129603;1274;108667;-75
2022/03/05 00:53:17;;;;;;;33.20;15.70;;;;;;;0.75;70.98;100778.67;129755;1274;108992;-76
2022/03/05 00:56:22;;;;;;;31.00;15.10;;;;;;;0.73;71.07;100779.97;129664;1274;108859;-75
2022/03/05 00:59:28;;;;;;;30.30;15.40;;;;;;;0.72;71.03;100782.30;129530;1274;108927;-74
2022/03/05 01:02:34;;;;;;;28.80;14.70;;;;;;;0.68;71.18;100777.81;129634;1274;108654;-75
2022/03/05 01:05:40;;;;;;;29.50;15.40;;;;;;;0.64;71.19;100777.63;129487;1274;108704;-74
2022/03/05 01:08:45;;;;;;;27.10;14.40;;;;;;;0.61;71.23;100777.63;129490;1274;108769;-75
2022/03/05 01:11:51;;;;;;;28.60;14.60;;;;;;;0.57;71.24;100781.13;129511;1274;109002;-75
2022/03/05 01:14:57;;;;;;;25.10;13.40;;;;;;;0.60;71.39;100785.92;129512;1274;107564;-76
2022/03/05 01:18:02;;;;;;;26.60;13.10;;;;;;;0.66;71.44;100784.19;129523;1274;107811;-76
2022/03/05 01:21:08;;;;;;;25.40;13.70;;;;;;;0.73;71.22;100781.91;129801;1273;108729;-77
2022/03/05 01:24:13;;;;;;;27.60;14.70;;;;;;;0.79;71.07;100784.59;129759;1273;108981;-76
2022/03/05 01:27:21;;;;;;;24.20;13.00;;;;;;;0.81;71.13;100787.47;129786;1273;108819;-76
2022/03/05 01:30:26;;;;;;;24.90;13.10;;;;;;;0.78;71.40;100784.82;129789;1273;108762;-76
2022/03/05 01:33:32;;;;;;;22.10;12.30;;;;;;;0.74;71.31;100787.27;129749;1273;108766;-76
2022/03/05 01:36:37;;;;;;;23.40;12.60;;;;;;;0.70;71.51;100787.69;129772;1273;109565;-74
2022/03/05 01:39:43;;;;;;;22.40;13.00;;;;;;;0.68;71.36;100786.05;129753;1273;108923;-75
2022/03/05 01:42:48;;;;;;;26.30;12.50;;;;;;;0.65;71.56;100783.55;129839;1273;108770;-76
2022/03/05 01:45:54;;;;;;;22.00;12.30;;;;;;;0.60;71.77;100781.72;129835;1273;107667;-75
2022/03/05 01:48:59;;;;;;;25.00;13.20;;;;;;;0.53;71.68;100782.39;129833;1273;108693;-76
2022/03/05 01:52:06;;;;;;;24.90;13.80;;;;;;;0.46;72.00;100776.98;129808;1273;108882;-75
2022/03/05 01:55:12;;;;;;;25.00;13.10;;;;;;;0.44;72.10;100780.55;129807;1273;109053;-74
2022/03/05 01:58:18;;;;;;;20.60;10.70;;;;;;;0.49;72.02;100777.72;129866;1273;109214;-74
2022/03/05 02:01:25;;;;;;;22.70;12.10;;;;;;;0.53;71.95;100777.85;129791;1273;108724;-76
2022/03/05 02:04:31;;;;;;;20.50;11.30;;;;;;;0.56;71.97;100781.37;129777;1273;107353;-77
2022/03/05 02:07:37;;;;;;;21.50;11.20;;;;;;;0.58;71.85;100778.61;129696;1273;206366;-74
2022/03/05 02:10:43;;;;;;;23.80;11.50;;;;;;;0.56;71.87;100777.88;129789;1273;108861;-76
2022/03/05 02:13:48;;;;;;;20.50;11.50;;;;;;;0.53;71.85;100780.44;129790;1273;108702;-76
2022/03/05 02:16:54;;;;;;;23.90;11.80;;;;;;;0.51;71.95;100780.72;129765;1273;108770;-76
2022/03/05 02:20:00;;;;;;;17.40;10.70;;;;;;;0.49;71.79;100784.84;129695;1274;107433;-75
2022/03/05 02:23:05;;;;;;;18.20;10.40;;;;;;;0.46;71.71;100779.94;129752;1274;108976;-75
2022/03/05 02:26:11;;;;;;;17.50;10.00;;;;;;;0.44;71.52;100778.27;129681;1274;107662;-74
2022/03/05 02:29:16;;;;;;;18.80;10.20;;;;;;;0.46;71.70;100777.83;129538;1274;107883;-75
2022/03/05 02:32:22;;;;;;;21.00;10.60;;;;;;;0.45;71.66;100778.94;129495;1274;108935;-73
2022/03/05 02:35:28;;;;;;;19.50;10.40;;;;;;;0.41;71.59;100786.33;129674;1274;108720;-73
2022/03/05 02:38:33;;;;;;;18.30;9.30;;;;;;;0.35;71.49;100783.77;129539;1274;108902;-73
2022/03/05 02:41:38;;;;;;;16.50;9.40;;;;;;;0.31;71.45;100784.88;129486;1274;109010;-75
2022/03/05 02:44:44;;;;;;;16.50;8.80;;;;;;;0.34;71.53;100787.89;129621;1274;108649;-75
2022/03/05 02:47:49;;;;;;;14.40;7.50;;;;;;;0.40;71.65;100791.42;129502;1274;108736;-74
2022/03/05 02:50:55;;;;;;;17.30;9.40;;;;;;;0.48;71.58;100792.64;129522;1274;108846;-74
2022/03/05 02:54:00;;;;;;;16.20;8.70;;;;;;;0.53;71.15;100790.80;129669;1274;108805;-75
2022/03/05 02:57:06;;;;;;;14.00;7.90;;;;;;;0.57;71.25;100792.50;129669;1274;108166;-73
2022/03/05 03:00:15;;;;;;;13.50;7.80;;;;;;;0.65;71.20;100792.64;129726;1275;108864;-74
2022/03/05 03:03:20;;;;;;;13.20;8.00;;;;;;;0.71;71.12;100792.37;129716;1274;108722;-75
2022/03/05 03:06:26;;;;;;;15.30;8.90;;;;;;;0.70;70.91;100789.59;129514;1274;107696;-74
2022/03/05 03:09:31;;;;;;;14.60;8.70;;;;;;;0.67;70.90;100791.01;129776;1274;108687;-76
2022/03/05 03:12:38;;;;;;;15.80;8.30;;;;;;;0.66;70.73;100787.89;129738;1274;107782;-75
2022/03/05 03:15:43;;;;;;;13.90;8.00;;;;;;;0.66;70.78;100786.31;129785;1274;108632;-75
2022/03/05 03:18:48;;;;;;;14.40;7.70;;;;;;;0.71;70.97;100784.30;129742;1274;108794;-75
2022/03/05 03:21:54;;;;;;;14.70;8.00;;;;;;;0.72;70.79;100785.14;129541;1274;109170;-76
2022/03/05 03:24:59;;;;;;;15.70;9.00;;;;;;;0.75;70.74;100782.68;129491;1274;108713;-75
2022/03/05 03:28:05;;;;;;;13.40;8.40;;;;;;;0.72;70.57;100785.80;129724;1274;108885;-76
2022/03/05 03:31:10;;;;;;;14.40;8.10;;;;;;;0.67;70.45;100783.46;129683;1274;108730;-75
2022/03/05 03:34:16;;;;;;;15.10;8.50;;;;;;;0.63;70.52;100785.94;129665;1274;108763;-75
2022/03/05 03:37:21;;;;;;;13.70;7.80;;;;;;;0.60;70.31;100782.94;129507;1274;108792;-76
2022/03/05 03:40:27;;;;;;;12.80;7.30;;;;;;;0.60;70.33;100783.79;129474;1276;108709;-75
2022/03/05 03:43:32;;;;;;;13.50;7.60;;;;;;;0.60;70.54;100780.13;129524;1275;108746;-75
2022/03/05 03:46:38;;;;;;;13.90;7.60;;;;;;;0.64;70.47;100783.96;129521;1274;108771;-74
2022/03/05 03:49:44;;;;;;;13.30;7.50;;;;;;;0.66;70.60;100783.13;129527;1274;108677;-74
2022/03/05 03:52:50;;;;;;;13.50;7.80;;;;;;;0.67;70.31;100784.65;129462;1274;109040;-73
2022/03/05 03:55:55;;;;;;;12.40;6.40;;;;;;;0.68;69.93;100781.84;129537;1274;106912;-75
2022/03/05 03:59:01;;;;;;;13.30;6.80;;;;;;;0.65;69.88;100787.55;129499;1274;109029;-75
2022/03/05 04:02:07;;;;;;;12.20;6.70;;;;;;;0.68;70.00;100786.57;129477;1274;109019;-75
2022/03/05 04:05:13;;;;;;;11.50;6.80;;;;;;;0.68;69.79;100783.92;129533;1274;108815;-75
2022/03/05 04:11:41;;;;;;;12.00;5.90;;;;;;;0.65;69.85;100795.29;129487;1274;108742;-74
2022/03/05 04:14:47;;;;;;;9.90;5.60;;;;;;;0.60;69.89;100797.65;129574;1274;108803;-74
2022/03/05 04:17:53;;;;;;;11.20;6.50;;;;;;;0.59;69.81;100794.32;129598;1275;108152;-73
2022/03/05 04:21:00;;;;;;;12.70;6.50;;;;;;;0.58;69.62;100799.46;129720;1274;108960;-74
2022/03/05 04:24:06;;;;;;;11.50;6.30;;;;;;;0.54;69.75;100800.19;129760;1274;106707;-74
2022/03/05 04:27:12;;;;;;;11.10;6.00;;;;;;;0.57;69.96;100803.39;129577;1274;108890;-75
2022/03/05 04:30:18;;;;;;;13.80;6.80;;;;;;;0.56;69.61;100802.75;129469;1274;108758;-74
2022/03/05 04:33:23;;;;;;;12.80;6.60;;;;;;;0.50;69.27;100804.75;129497;1274;108735;-74
2022/03/05 04:36:29;;;;;;;10.60;5.80;;;;;;;0.45;69.50;100804.51;129503;1274;108752;-75
2022/03/05 04:39:34;;;;;;;11.00;6.30;;;;;;;0.44;69.38;100809.78;129570;1274;108990;-74
2022/03/05 04:42:40;;;;;;;10.50;5.50;;;;;;;0.46;69.46;100809.35;129713;1275;108761;-75
2022/03/05 04:45:45;;;;;;;10.60;5.70;;;;;;;0.52;69.65;100811.69;129694;1274;108782;-74
2022/03/05 04:48:51;;;;;;;10.70;6.10;;;;;;;0.57;69.61;100811.80;129769;1274;108748;-74
2022/03/05 04:51:57;;;;;;;9.70;5.70;;;;;;;0.52;68.97;100813.42;129560;1274;107652;-73
2022/03/05 04:55:02;;;;;;;11.40;5.50;;;;;;;0.42;68.82;100816.36;129624;1275;108841;-73
2022/03/05 04:58:07;;;;;;;9.90;5.30;;;;;;;0.36;68.89;100819.64;129714;1274;108732;-75
2022/03/05 05:01:14;;;;;;;9.50;5.20;;;;;;;0.35;69.26;100818.44;129615;1274;108845;-76
2022/03/05 05:04:20;;;;;;;8.50;5.30;;;;;;;0.42;69.38;100813.77;129810;1274;108906;-74
2022/03/05 05:07:25;;;;;;;9.70;5.70;;;;;;;0.45;68.68;100816.42;129737;1274;108946;-76
2022/03/05 05:10:31;;;;;;;12.00;5.80;;;;;;;0.42;68.71;100820.79;129493;1274;108089;-77
2022/03/05 05:13:38;;;;;;;11.80;6.00;;;;;;;0.44;68.63;100819.42;129609;1274;108996;-76
2022/03/05 05:16:43;;;;;;;14.00;7.20;;;;;;;0.42;68.55;100828.26;129510;1274;108799;-74
2022/03/05 05:19:49;;;;;;;13.80;7.70;;;;;;;0.43;68.84;100831.40;129503;1274;108871;-73
2022/03/05 05:22:54;;;;;;;17.50;8.80;;;;;;;0.44;68.70;100828.34;129507;1274;108929;-74
2022/03/05 05:25:59;;;;;;;15.30;6.80;;;;;;;0.46;68.48;100832.83;129576;1274;108851;-75
2022/03/05 05:29:05;;;;;;;11.80;5.60;;;;;;;0.48;68.51;100833.23;129619;1274;108692;-74
2022/03/05 05:32:11;;;;;;;9.90;5.20;;;;;;;0.45;67.92;100832.88;129755;1274;109125;-75
2022/03/05 05:35:17;;;;;;;9.00;4.80;;;;;;;0.42;68.06;100834.77;129696;1274;108743;-75
2022/03/05 05:38:22;;;;;;;10.50;5.60;;;;;;;0.39;68.24;100837.48;129609;1274;108732;-73
2022/03/05 05:41:27;;;;;;;13.30;6.30;;;;;;;0.41;68.10;100839.70;129711;1274;107562;-74
2022/03/05 05:44:33;;;;;;;10.10;5.70;;;;;;;0.43;68.36;100841.52;129810;1274;108809;-77
2022/03/05 05:47:38;;;;;;;9.00;5.20;;;;;;;0.49;68.22;100843.34;129722;1274;109034;-74
2022/03/05 05:50:44;;;;;;;8.90;5.00;;;;;;;0.52;67.94;100843.87;129503;1274;107579;-75
2022/03/05 05:53:50;;;;;;;10.00;5.90;;;;;;;0.50;67.78;100848.34;130011;1274;108777;-79
2022/03/05 05:56:57;;;;;;;9.20;5.50;;;;;;;0.51;68.03;100852.35;130096;1274;108733;-77
2022/03/05 06:00:04;;;;;;;10.00;5.20;;;;;;;0.53;67.87;100859.05;129993;1274;108793;-77
2022/03/05 06:03:18;;;;;;;11.90;5.70;;;;;;;0.56;67.83;100855.78;129968;1274;108945;-77
2022/03/05 06:06:24;;;;;;;13.30;5.50;;;;;;;0.57;67.58;100855.00;130088;1275;106716;-76
2022/03/05 06:09:29;;;;;;;11.40;5.90;;;;;;;0.59;68.00;100854.58;129496;1274;107747;-76
2022/03/05 06:12:35;;;;;;;11.10;5.90;;;;;;;0.63;67.52;100859.12;129825;1274;108687;-83
2022/03/05 06:15:41;;;;;;;11.20;5.20;;;;;;;0.67;68.07;100859.64;129998;1274;109097;-73
2022/03/05 06:18:46;;;;;;;8.70;4.90;;;;;;;0.70;67.72;100864.55;129991;1274;108715;-72
2022/03/05 06:21:52;;;;;;;8.90;5.00;;;;;;;0.69;67.41;100865.14;129842;1273;108788;-74
2022/03/05 06:24:59;;;;;;;8.90;5.10;;;;;;;0.68;67.39;100868.50;129737;1274;108772;-72
2022/03/05 06:28:05;;;;;;;9.30;5.30;;;;;;;0.68;67.29;100868.84;129568;1274;108785;-73
2022/03/05 06:31:12;;;;;;;7.60;4.80;;;;;;;0.73;67.69;100871.06;129669;1274;108889;-74
2022/03/05 06:34:18;;;;;;;8.40;5.00;;;;;;;0.79;67.71;100873.02;129520;1274;108791;-73
2022/03/05 06:37:25;;;;;;;8.50;5.00;;;;;;;0.93;67.79;100866.94;129706;1274;109150;-73
2022/03/05 06:40:30;;;;;;;8.70;5.70;;;;;;;0.99;67.46;100872.57;129518;1274;107852;-74
2022/03/05 06:43:36;;;;;;;8.00;5.10;;;;;;;1.03;67.00;100877.14;129736;1274;108923;-77
2022/03/05 06:46:41;;;;;;;8.20;4.70;;;;;;;1.02;67.02;100882.08;129921;1274;108731;-74
2022/03/05 06:49:46;;;;;;;7.70;4.80;;;;;;;1.04;67.32;100881.96;129812;1274;108543;-73
2022/03/05 06:52:52;;;;;;;7.60;4.60;;;;;;;1.05;66.95;100888.41;129809;1274;108759;-75
2022/03/05 06:55:57;;;;;;;11.80;6.60;;;;;;;1.05;67.28;100893.66;129794;1273;108691;-75
2022/03/05 06:59:03;;;;;;;12.20;7.10;;;;;;;1.06;67.23;100894.30;129828;1273;108819;-75
2022/03/05 07:02:09;;;;;;;11.90;5.90;;;;;;;1.10;67.26;100895.69;129875;1274;108943;-72
2022/03/05 07:05:16;;;;;;;9.50;5.30;;;;;;;1.12;67.06;100893.84;129799;1273;108953;-76
2022/03/05 07:08:21;;;;;;;8.80;5.10;;;;;;;1.14;67.02;100895.10;129750;1273;108786;-74
2022/03/05 07:11:27;;;;;;;9.10;5.20;;;;;;;1.17;66.82;100892.36;129835;1274;108672;-74
2022/03/05 07:14:32;;;;;;;10.40;5.90;;;;;;;1.16;66.65;100893.98;129663;1274;108876;-74
2022/03/05 07:17:37;;;;;;;17.00;7.80;;;;;;;1.14;66.75;100892.30;129602;1274;108714;-73
2022/03/05 07:20:43;;;;;;;16.30;8.50;;;;;;;1.17;66.97;100896.73;129579;1276;109067;-73
2022/03/05 07:23:48;;;;;;;10.90;6.80;;;;;;;1.20;66.98;100892.73;129784;1274;108737;-73
2022/03/05 07:26:54;;;;;;;46.20;20.10;;;;;;;1.25;66.70;100895.65;129647;1274;108763;-74
2022/03/05 07:29:59;;;;;;;46.70;20.80;;;;;;;1.27;66.75;100900.09;129809;1274;106907;-75
2022/03/05 07:33:05;;;;;;;34.30;15.10;;;;;;;1.29;66.87;100903.32;129656;1274;108863;-75
2022/03/05 07:36:11;;;;;;;18.50;10.30;;;;;;;1.38;67.03;100906.91;129500;1276;108737;-74
2022/03/05 07:39:16;;;;;;;18.50;10.60;;;;;;;1.45;66.92;100906.01;129488;1276;108934;-74
2022/03/05 07:42:21;;;;;;;20.90;9.60;;;;;;;1.49;66.68;100911.05;129523;1276;108828;-74
2022/03/05 07:45:27;;;;;;;12.50;7.90;;;;;;;1.51;66.58;100910.09;129580;1275;108928;-73
2022/03/05 07:48:33;;;;;;;13.10;7.90;;;;;;;1.54;66.54;100913.27;129680;1276;106907;-74
2022/03/05 07:51:39;;;;;;;12.90;7.60;;;;;;;1.59;66.58;100920.39;129691;1276;108895;-72
2022/03/05 07:54:44;;;;;;;11.00;6.60;;;;;;;1.61;66.08;100921.48;129703;1276;108843;-74
2022/03/05 07:57:50;;;;;;;11.30;6.20;;;;;;;1.60;66.00;100923.66;129593;1276;108725;-73
2022/03/05 08:00:55;;;;;;;15.10;8.50;;;;;;;1.61;65.75;100920.82;129581;1274;108853;-73
2022/03/05 08:04:01;;;;;;;17.10;9.80;;;;;;;1.61;66.08;100922.20;129610;1276;108748;-73
2022/03/05 08:07:07;;;;;;;15.10;7.40;;;;;;;1.70;65.88;100922.46;129690;1276;108712;-73
2022/03/05 08:10:13;;;;;;;13.00;7.20;;;;;;;1.79;65.60;100922.31;129633;1276;107407;-74
2022/03/05 08:13:19;;;;;;;12.50;7.20;;;;;;;1.85;65.53;100923.95;129605;1276;108991;-73
2022/03/05 08:16:24;;;;;;;13.50;7.60;;;;;;;1.94;65.72;100925.41;129680;1276;107039;-73
2022/03/05 08:19:30;;;;;;;15.80;7.50;;;;;;;2.07;65.62;100924.34;129685;1275;108695;-73
2022/03/05 08:22:36;;;;;;;14.00;7.40;;;;;;;2.24;65.87;100920.10;129585;1276;106813;-74
2022/03/05 08:25:42;;;;;;;15.70;8.20;;;;;;;2.42;65.27;100923.86;129667;1276;108746;-73
2022/03/05 08:28:47;;;;;;;11.10;7.20;;;;;;;2.61;65.67;100923.31;129687;1276;108809;-73
2022/03/05 08:31:53;;;;;;;15.30;8.30;;;;;;;2.75;64.99;100925.52;129484;1276;108748;-73
2022/03/05 08:34:58;;;;;;;13.60;7.10;;;;;;;2.92;64.95;100925.46;129629;1276;108896;-73
2022/03/05 08:38:04;;;;;;;11.80;6.90;;;;;;;3.05;64.36;100920.86;129575;1276;108791;-73
2022/03/05 08:41:10;;;;;;;12.60;7.10;;;;;;;3.11;63.91;100920.88;129677;1276;109033;-74
2022/03/05 08:44:15;;;;;;;11.10;5.80;;;;;;;3.22;64.31;100922.55;129749;1276;108897;-72
2022/03/05 08:47:20;;;;;;;13.80;7.50;;;;;;;3.35;64.29;100923.88;129667;1276;109034;-74
2022/03/05 08:50:26;;;;;;;10.20;6.00;;;;;;;3.55;64.10;100926.71;129744;1276;107229;-73
2022/03/05 08:53:31;;;;;;;8.40;5.00;;;;;;;3.72;64.13;100928.52;129596;1276;107397;-75
2022/03/05 08:56:37;;;;;;;7.80;4.60;;;;;;;3.89;63.96;100930.66;129653;1276;108705;-74
2022/03/05 08:59:42;;;;;;;10.20;5.90;;;;;;;3.97;63.07;100926.34;129654;1276;108784;-75
2022/03/05 09:02:47;;;;;;;15.00;7.80;;;;;;;4.06;63.59;100925.77;129579;1276;108718;-75
2022/03/05 09:05:53;;;;;;;7.50;4.50;;;;;;;4.15;63.36;100928.04;129605;1276;108892;-74
2022/03/05 09:08:59;;;;;;;6.20;4.00;;;;;;;4.20;62.87;100927.18;129723;1276;108715;-74
2022/03/05 09:12:06;;;;;;;10.90;6.30;;;;;;;4.21;62.77;100927.11;129765;1276;108737;-73
2022/03/05 09:15:12;;;;;;;11.00;6.60;;;;;;;4.20;62.92;100929.30;129793;1276;108991;-75
2022/03/05 09:18:17;;;;;;;10.40;6.20;;;;;;;4.22;62.86;100929.17;129689;1274;108976;-74
2022/03/05 09:21:23;;;;;;;11.10;6.30;;;;;;;4.21;62.62;100930.00;129584;1274;108534;-73
2022/03/05 09:24:28;;;;;;;9.40;5.30;;;;;;;4.14;62.31;100939.20;129582;1274;107750;-73
2022/03/05 09:27:34;;;;;;;7.70;4.80;;;;;;;4.02;61.95;100942.92;129754;1274;108676;-73
2022/03/05 09:30:39;;;;;;;9.20;4.60;;;;;;;3.92;62.11;100937.54;129699;1274;108876;-74
2022/03/05 09:33:45;;;;;;;12.10;7.90;;;;;;;3.87;62.17;100939.40;129697;1274;109005;-73
2022/03/05 09:36:50;;;;;;;6.60;4.50;;;;;;;3.80;61.78;100946.35;129614;1274;108921;-73
2022/03/05 09:39:56;;;;;;;7.80;5.30;;;;;;;3.67;61.41;100945.77;129698;1274;108857;-73
2022/03/05 09:43:03;;;;;;;9.00;6.30;;;;;;;3.47;60.29;100948.16;129792;1274;107626;-73
2022/03/05 09:46:09;;;;;;;5.60;4.30;;;;;;;3.29;61.10;100953.20;130334;1272;108172;-73
2022/03/05 09:49:15;;;;;;;9.40;5.20;;;;;;;3.21;61.12;100957.23;130026;1273;108857;-72
2022/03/05 09:52:21;;;;;;;9.00;5.40;;;;;;;3.11;60.99;100956.56;130028;1273;107372;-73
2022/03/05 09:55:26;;;;;;;35.90;11.90;;;;;;;3.00;59.95;100955.26;129520;1276;108888;-70
2022/03/05 09:58:31;;;;;;;103.60;28.60;;;;;;;2.89;60.14;100955.72;129857;1273;109525;-69
2022/03/05 10:01:39;;;;;;;24.00;8.90;;;;;;;2.94;61.12;100957.54;129321;1276;108828;-71
2022/03/05 10:04:45;;;;;;;9.30;4.80;;;;;;;2.93;58.99;100958.27;130109;1273;108756;-74
2022/03/05 10:08:08;;;;;;;5.50;3.40;;;;;;;2.90;59.03;100962.88;129777;1273;108891;-72
2022/03/05 10:11:19;;;;;;;6.00;3.40;;;;;;;2.88;58.17;100962.95;129934;1273;108731;-74
2022/03/05 10:14:25;;;;;;;7.00;3.90;;;;;;;2.87;57.52;100965.16;130050;1273;107901;-74
2022/03/05 10:17:30;;;;;;;5.80;3.60;;;;;;;2.79;56.00;100962.92;129745;1273;109612;-73
2022/03/05 10:20:43;;;;;;;6.90;4.00;;;;;;;2.71;57.62;100965.67;129577;1274;108649;-72
2022/03/05 10:23:50;;;;;;;9.10;5.30;;;;;;;2.65;55.87;100969.86;129812;1273;108866;-73
2022/03/05 10:26:56;;;;;;;19.50;14.90;;;;;;;2.60;56.56;100965.06;129757;1273;108829;-74
2022/03/05 10:30:03;;;;;;;17.70;11.60;;;;;;;2.54;56.66;100970.80;129835;1273;108919;-73
2022/03/05 10:33:13;;;;;;;7.40;4.40;;;;;;;2.46;55.93;100973.87;129714;1272;108846;-71
2022/03/05 10:36:22;;;;;;;6.10;3.90;;;;;;;2.35;56.81;100976.95;129902;1273;108775;-72
2022/03/05 10:39:28;;;;;;;8.10;4.40;;;;;;;2.36;58.28;100976.53;129836;1273;108684;-71
2022/03/05 10:42:40;;;;;;;8.70;4.70;;;;;;;2.54;58.87;100977.12;130061;1273;108783;-74
2022/03/05 10:45:55;;;;;;;6.60;4.30;;;;;;;2.73;58.14;100980.80;129993;1273;110185;-72
2022/03/05 10:49:10;;;;;;;5.70;3.50;;;;;;;2.82;58.34;100977.71;129956;1273;108860;-73
2022/03/05 10:52:16;;;;;;;7.00;3.70;;;;;;;3.00;58.33;100977.75;130394;1273;109084;-74
2022/03/05 10:55:23;;;;;;;8.70;4.30;;;;;;;3.17;57.60;100982.04;130171;1273;108876;-74
2022/03/05 10:58:29;;;;;;;12.30;4.70;;;;;;;3.24;56.81;100988.17;130057;1273;108855;-74
2022/03/05 11:01:37;;;;;;;11.90;6.40;;;;;;;3.26;56.88;100985.26;129689;1274;108952;-73
2022/03/05 11:04:45;;;;;;;10.70;5.30;;;;;;;3.18;54.63;100985.19;130037;1273;108900;-76
2022/03/05 11:07:53;;;;;;;8.70;4.90;;;;;;;3.12;56.25;100984.98;130747;1273;108952;-72
2022/03/05 11:10:59;;;;;;;6.30;3.80;;;;;;;3.18;57.53;100986.77;130073;1273;108744;-73
2022/03/05 11:14:05;;;;;;;5.30;3.50;;;;;;;3.35;57.47;100980.51;129716;1273;108603;-74
2022/03/05 11:17:11;;;;;;;8.00;5.00;;;;;;;3.47;56.55;100977.51;129952;1273;107772;-72
2022/03/05 11:20:17;;;;;;;5.80;3.60;;;;;;;3.45;55.08;100974.08;129783;1273;108911;-72
2022/03/05 11:23:26;;;;;;;5.90;3.60;;;;;;;3.56;57.09;100975.26;129803;1273;108762;-72
2022/03/05 11:26:32;;;;;;;7.50;4.70;;;;;;;3.72;57.64;100971.30;129921;1273;108868;-74
2022/03/05 11:29:55;;;;;;;9.40;5.10;;;;;;;3.99;57.35;100968.09;129959;1273;108792;-74
2022/03/05 11:33:04;;;;;;;5.80;3.70;;;;;;;4.19;56.61;100964.73;129803;1273;109164;-74
2022/03/05 11:36:23;;;;;;;9.00;4.70;;;;;;;4.38;56.56;100959.22;129797;1273;108673;-74
2022/03/05 11:39:36;;;;;;;6.60;4.40;;;;;;;4.56;56.71;100956.83;129886;1273;108915;-74
2022/03/05 11:42:42;;;;;;;7.70;4.80;;;;;;;4.66;56.45;100948.23;130277;1273;108777;-73
2022/03/05 11:45:56;;;;;;;8.20;5.60;;;;;;;4.78;56.30;100945.56;129731;1273;108475;-72
2022/03/05 11:49:04;;;;;;;5.70;3.90;;;;;;;4.89;56.26;100947.31;129729;1273;108870;-72
2022/03/05 11:52:10;;;;;;;5.80;3.90;;;;;;;5.01;56.41;100949.56;129851;1273;108040;-73
2022/03/05 11:55:18;;;;;;;5.30;3.90;;;;;;;5.15;56.43;100947.91;129768;1273;109035;-74
2022/03/05 11:58:34;;;;;;;7.70;3.70;;;;;;;5.24;56.02;100946.99;129879;1273;108812;-75
2022/03/05 12:01:42;;;;;;;6.00;3.90;;;;;;;5.31;56.23;100946.85;130076;1273;107755;-73
2022/03/05 12:04:48;;;;;;;6.00;3.80;;;;;;;5.36;55.86;100940.56;131492;1273;108459;-72
2022/03/05 12:07:53;;;;;;;5.30;3.40;;;;;;;5.40;55.58;100942.77;131640;1273;108812;-71
2022/03/05 12:11:14;;;;;;;5.20;3.70;;;;;;;5.32;54.08;100944.67;130192;1273;107732;-69
2022/03/05 12:14:19;;;;;;;5.00;3.50;;;;;;;5.21;55.32;100940.98;130065;1273;108943;-72
2022/03/05 12:17:26;;;;;;;4.60;3.30;;;;;;;5.28;55.59;100935.80;129683;1274;108836;-74
2022/03/05 12:20:35;;;;;;;4.00;3.20;;;;;;;5.35;55.15;100935.52;129912;1273;108713;-73
2022/03/05 12:23:40;;;;;;;5.10;3.60;;;;;;;5.34;55.53;100932.02;129867;1273;109011;-72
2022/03/05 12:26:51;;;;;;;5.20;3.70;;;;;;;5.38;55.48;100932.96;129927;1273;107740;-73
2022/03/05 12:29:59;;;;;;;7.50;3.70;;;;;;;5.49;55.60;100929.42;129993;1273;108885;-71
2022/03/05 12:33:06;;;;;;;6.60;3.70;;;;;;;5.59;55.67;100926.98;129798;1273;108733;-72
2022/03/05 12:36:17;;;;;;;7.60;4.20;;;;;;;5.70;55.25;100924.69;129932;1273;108898;-72
2022/03/05 12:39:27;;;;;;;6.50;4.20;;;;;;;5.74;54.90;100923.70;130027;1273;108813;-71
2022/03/05 12:42:44;;;;;;;6.80;4.00;;;;;;;5.71;54.74;100915.55;129904;1273;108698;-70
2022/03/05 12:45:50;;;;;;;7.20;4.20;;;;;;;5.66;54.66;100914.66;129702;1272;108725;-71
2022/03/05 12:49:03;;;;;;;5.60;3.70;;;;;;;5.63;54.87;100916.84;129814;1273;109964;-71
2022/03/05 12:52:09;;;;;;;6.40;4.80;;;;;;;5.65;54.68;100917.40;129967;1273;108892;-73
2022/03/05 12:55:20;;;;;;;7.30;5.00;;;;;;;5.60;53.96;100921.30;129694;1274;108873;-74
2022/03/05 12:58:27;;;;;;;6.50;4.20;;;;;;;5.49;54.08;100923.05;130088;1273;108011;-73
2022/03/05 13:01:33;;;;;;;8.00;5.00;;;;;;;5.44;54.53;100924.46;129978;1273;108982;-70
2022/03/05 13:04:39;;;;;;;7.20;4.70;;;;;;;5.39;53.53;100922.13;129852;1273;108912;-73
2022/03/05 13:07:46;;;;;;;8.40;4.70;;;;;;;5.15;52.59;100920.55;130009;1273;108858;-72
2022/03/05 13:11:01;;;;;;;5.80;3.80;;;;;;;4.99;53.54;100925.89;129988;1273;107343;-74
2022/03/05 13:14:06;;;;;;;6.30;4.40;;;;;;;4.91;52.65;100920.20;130053;1272;108846;-73
2022/03/05 13:17:12;;;;;;;5.60;3.90;;;;;;;4.79;53.33;100923.63;129770;1274;108561;-72
2022/03/05 13:20:20;;;;;;;5.70;3.90;;;;;;;4.79;53.51;100928.91;129887;1273;108802;-71
2022/03/05 13:23:25;;;;;;;6.90;4.20;;;;;;;4.80;52.94;100927.66;129917;1273;108939;-71
2022/03/05 13:26:35;;;;;;;6.70;4.80;;;;;;;4.75;52.86;100913.84;129731;1273;107573;-73
2022/03/05 13:29:40;;;;;;;5.20;3.90;;;;;;;4.63;52.11;100917.29;129871;1273;107124;-73
2022/03/05 13:32:50;;;;;;;5.80;3.70;;;;;;;4.50;53.08;100912.25;129744;1273;107477;-69
2022/03/05 13:35:56;;;;;;;5.50;3.70;;;;;;;4.53;52.94;100917.94;129609;1273;108732;-73
2022/03/05 13:39:10;;;;;;;5.30;3.60;;;;;;;4.41;52.71;100915.29;129738;1273;108303;-70
2022/03/05 13:42:18;;;;;;;6.40;4.00;;;;;;;4.37;53.29;100912.96;129900;1273;108783;-73
2022/03/05 13:45:28;;;;;;;5.90;3.80;;;;;;;4.41;52.80;100915.70;129800;1273;108715;-75
2022/03/05 13:48:40;;;;;;;5.20;3.40;;;;;;;4.36;52.61;100917.08;129797;1273;108841;-75
2022/03/05 13:51:48;;;;;;;5.70;3.80;;;;;;;4.28;51.32;100917.84;129978;1273;107853;-75
2022/03/05 13:54:53;;;;;;;7.50;4.20;;;;;;;4.16;52.88;100915.68;129815;1273;108769;-76
2022/03/05 13:57:59;;;;;;;9.10;5.00;;;;;;;4.22;53.27;100917.76;130136;1273;106961;-74
2022/03/05 14:01:12;;;;;;;7.90;5.10;;;;;;;4.21;52.62;100918.52;129789;1272;108756;-74
2022/03/05 14:04:20;;;;;;;7.20;4.40;;;;;;;4.20;53.27;100920.71;129811;1273;108904;-76
2022/03/05 14:07:25;;;;;;;6.10;4.20;;;;;;;4.13;52.77;100917.24;129663;1273;202820;-77
2022/03/05 14:10:32;;;;;;;10.40;5.40;;;;;;;4.07;53.55;100926.73;129736;1273;108238;-77
2022/03/05 14:13:47;;;;;;;8.80;4.70;;;;;;;4.12;53.28;100925.05;129778;1273;108691;-75